Time;durP1;ratioP1;P1;durP2;ratioP2;P2;SDS_P1;SDS_P2;PMS_P1;PMS_P2;Temp;Humidity;BMP_temperature;BMP_pressure;BME280_temperature;BME280_humidity;BME280_pressure;Samples;Min_cycle;Max_cycle;Signal;HPM_P1;HPM_P2
2024/04/08 00:01:04;;;;;;;;;;;;;;;16.15;65.68;96022.69;5505269;26;19980;-73
2024/04/08 00:03:29;;;;;;;;;;;;;;;16.13;65.56;96022.94;5504453;26;20203;-73
2024/04/08 00:05:56;;;;;;;;;;;;;;;16.10;65.64;96023.44;5505263;26;19954;-73
2024/04/08 00:08:21;;;;;;;;;;;;;;;16.08;66.57;96019.47;5504983;26;19966;-73
2024/04/08 00:10:47;;;;;;;;;;;;;;;16.05;65.95;96020.81;5505137;26;19954;-71
2024/04/08 00:13:13;;;;;;;;;;;;;;;16.04;67.25;96027.13;5504191;26;19967;-71
2024/04/08 00:15:39;;;;;;;;;;;;;;;16.02;67.61;96023.97;5505132;26;20154;-83
2024/04/08 00:18:05;;;;;;;;;;;;;;;16.00;67.78;96024.25;5505073;26;19964;-84
2024/04/08 00:20:31;;;;;;;;;;;;;;;15.98;67.53;96023.72;5504246;26;19957;-83
2024/04/08 00:22:56;;;;;;;;;;;;;;;15.96;67.26;96025.03;5504995;26;19995;-83
2024/04/08 00:25:22;;;;;;;;;;;;;;;15.92;66.66;96016.03;5504872;26;19987;-83
2024/04/08 00:27:48;;;;;;;;;;;;;;;15.90;68.75;96018.16;5504612;26;19979;-83
2024/04/08 00:30:14;;;;;;;;;;;;;;;15.88;68.89;96010.47;5504886;26;19958;-70
2024/04/08 00:32:40;;;;;;;;;;;;;;;15.89;67.49;96011.25;5504021;26;19956;-69
2024/04/08 00:35:06;;;;;;;;;;;;;;;15.91;69.17;96020.50;5504835;26;19967;-70
2024/04/08 00:37:32;;;;;;;;;;;;;;;15.92;67.98;96006.25;5504041;26;20048;-69
2024/04/08 00:39:57;;;;;;;;;;;;;;;15.93;66.45;95999.09;5503899;26;19952;-69
2024/04/08 00:42:23;;;;;;;;;;;;;;;15.93;66.27;95997.25;5504652;26;19947;-69
2024/04/08 00:44:49;;;;;;;;;;;;;;;15.95;67.92;96004.94;5504681;26;20095;-69
2024/04/08 00:47:15;;;;;;;;;;;;;;;15.95;66.76;96004.94;5504519;26;20098;-68
2024/04/08 00:49:42;;;;;;;;;;;;;;;15.94;66.33;96008.63;5504585;26;19950;-69
2024/04/08 00:52:10;;;;;;;;;;;;;;;15.93;66.15;96002.53;5504504;26;20164;-69
2024/04/08 00:54:37;;;;;;;;;;;;;;;15.93;67.25;95999.91;5504541;26;20168;-69
2024/04/08 00:57:03;;;;;;;;;;;;;;;15.94;68.14;96008.63;5504518;26;19950;-69
2024/04/08 00:59:32;;;;;;;;;;;;;;;15.93;68.77;96007.81;5504393;26;19947;-69
2024/04/08 01:01:58;;;;;;;;;;;;;;;15.93;68.14;96002.53;5504344;26;19948;-69
2024/04/08 01:04:24;;;;;;;;;;;;;;;15.92;68.22;95998.31;5504259;26;19977;-69
2024/04/08 01:06:50;;;;;;;;;;;;;;;15.87;69.38;95993.00;5503425;26;21702;-73
2024/04/08 01:09:16;;;;;;;;;;;;;;;15.84;70.05;95996.19;5504148;26;19963;-68
2024/04/08 01:11:43;;;;;;;;;;;;;;;15.80;72.16;95998.56;5503472;26;19965;-68
2024/04/08 01:14:09;;;;;;;;;;;;;;;15.76;71.78;95989.56;5504175;26;19954;-68
2024/04/08 01:16:34;;;;;;;;;;;;;;;15.74;72.42;95991.66;5504207;26;20090;-67
2024/04/08 01:19:00;;;;;;;;;;;;;;;15.71;72.48;95991.38;5504160;26;20203;-68
2024/04/08 01:21:26;;;;;;;;;;;;;;;15.69;72.41;95994.28;5504102;26;19973;-68
2024/04/08 01:23:52;;;;;;;;;;;;;;;15.67;73.40;95991.09;5504088;26;19957;-69
2024/04/08 01:26:18;;;;;;;;;;;;;;;15.65;73.19;95990.56;5503850;26;20161;-75
2024/04/08 01:28:44;;;;;;;;;;;;;;;15.63;72.37;95980.25;5504053;26;19965;-69
2024/04/08 01:31:10;;;;;;;;;;;;;;;15.62;74.18;95985.78;5503977;26;19958;-69
2024/04/08 01:33:37;;;;;;;;;;;;;;;15.58;75.14;95984.72;5503964;26;20119;-69
2024/04/08 01:36:04;;;;;;;;;;;;;;;15.55;74.66;95983.41;5503927;26;19972;-69
2024/04/08 01:38:31;;;;;;;;;;;;;;;15.52;74.82;95975.22;5503854;26;19955;-68
2024/04/08 01:40:57;;;;;;;;;;;;;;;15.49;74.79;95975.72;5503837;26;19945;-68
2024/04/08 01:43:23;;;;;;;;;;;;;;;15.46;75.47;95961.19;5503785;26;19949;-68
2024/04/08 01:45:50;;;;;;;;;;;;;;;15.44;75.90;95958.00;5503789;26;20041;-69
2024/04/08 01:48:17;;;;;;;;;;;;;;;15.42;76.79;95960.13;5503520;26;20155;-70
2024/04/08 01:50:42;;;;;;;;;;;;;;;15.39;75.53;95965.91;5503724;26;19964;-69
2024/04/08 01:53:08;;;;;;;;;;;;;;;15.38;76.72;95957.19;5503568;26;19959;-69
2024/04/08 01:55:34;;;;;;;;;;;;;;;15.37;71.47;95945.06;5503623;26;20094;-69
2024/04/08 01:58:00;;;;;;;;;;;;;;;15.38;74.65;95945.84;5503544;26;20171;-69
2024/04/08 02:00:26;;;;;;;;;;;;;;;15.37;75.45;95950.34;5502563;26;19976;-69
2024/04/08 02:02:52;;;;;;;;;;;;;;;15.34;75.72;95956.13;5501904;26;19961;-68
2024/04/08 02:05:17;;;;;;;;;;;;;;;15.32;76.05;95965.38;5503430;26;19949;-70
2024/04/08 02:07:44;;;;;;;;;;;;;;;15.29;76.18;95979.91;5503370;26;20094;-69
2024/04/08 02:10:10;;;;;;;;;;;;;;;15.26;76.94;95977.75;5503294;26;19974;-70
2024/04/08 02:12:35;;;;;;;;;;;;;;;15.23;76.88;95976.44;5503364;26;19952;-69
2024/04/08 02:15:01;;;;;;;;;;;;;;;15.21;77.85;95988.31;5503263;26;20226;-69
2024/04/08 02:17:29;;;;;;;;;;;;;;;15.18;77.19;95983.53;5503207;26;19975;-69
2024/04/08 02:19:56;;;;;;;;;;;;;;;15.14;78.14;95995.66;5502453;26;20163;-74
2024/04/08 02:22:21;;;;;;;;;;;;;;;15.11;77.93;95999.63;5503148;26;19961;-73
2024/04/08 02:24:47;;;;;;;;;;;;;;;15.08;77.98;95999.38;5503155;26;20018;-73
2024/04/08 02:27:13;;;;;;;;;;;;;;;15.04;78.14;95998.28;5502743;26;19968;-73
2024/04/08 02:29:39;;;;;;;;;;;;;;;14.99;75.99;95993.75;5502984;26;19976;-73
2024/04/08 02:32:05;;;;;;;;;;;;;;;14.93;79.36;96003.50;5502933;26;19951;-74
2024/04/08 02:34:31;;;;;;;;;;;;;;;14.89;78.02;95993.69;5502953;26;19953;-73
2024/04/08 02:36:57;;;;;;;;;;;;;;;14.84;77.98;95999.75;5502860;26;20034;-74
2024/04/08 02:39:22;;;;;;;;;;;;;;;14.82;78.04;95994.75;5502841;26;19964;-68
2024/04/08 02:41:48;;;;;;;;;;;;;;;14.81;77.40;96002.91;5502852;26;19961;-67
2024/04/08 02:44:14;;;;;;;;;;;;;;;14.78;78.41;96000.78;5502004;26;19952;-68
2024/04/08 02:46:40;;;;;;;;;;;;;;;14.75;77.45;95996.00;5502757;26;19949;-68
2024/04/08 02:49:06;;;;;;;;;;;;;;;14.71;78.00;96003.63;5501851;26;19954;-69
2024/04/08 02:51:32;;;;;;;;;;;;;;;14.67;78.33;96001.75;5502664;26;19973;-68
2024/04/08 02:53:58;;;;;;;;;;;;;;;14.65;77.86;95993.31;5502564;26;19978;-68
2024/04/08 02:56:24;;;;;;;;;;;;;;;14.61;77.57;96000.94;5502547;26;19947;-67
2024/04/08 02:58:50;;;;;;;;;;;;;;;14.57;79.18;96005.94;5501727;26;19994;-69
2024/04/08 03:01:15;;;;;;;;;;;;;;;14.52;78.14;96008.50;5502465;26;20014;-70
2024/04/08 03:03:41;;;;;;;;;;;;;;;14.50;79.09;96013.22;5502409;26;19956;-69
2024/04/08 03:06:07;;;;;;;;;;;;;;;14.48;77.79;96009.25;5502356;26;19967;-69
2024/04/08 03:08:35;;;;;;;;;;;;;;;14.45;79.09;96012.38;5502157;26;19950;-69
2024/04/08 03:11:02;;;;;;;;;;;;;;;14.41;78.85;96010.28;5501596;26;20001;-70
2024/04/08 03:13:28;;;;;;;;;;;;;;;14.39;79.79;96015.00;5502932;26;19959;-70
2024/04/08 03:15:54;;;;;;;;;;;;;;;14.36;79.28;96020.78;5505915;26;19967;-72
2024/04/08 03:18:20;;;;;;;;;;;;;;;14.33;77.75;96023.13;5505915;26;19952;-70
2024/04/08 03:21:03;;;;;;;;;;;;;;;14.30;79.17;96026.25;5505880;26;19952;-69
2024/04/08 03:23:29;;;;;;;;;;;;;;;14.25;78.47;96027.00;5505788;26;19960;-70
2024/04/08 03:25:59;;;;;;;;;;;;;;;14.24;78.52;96024.63;5505780;26;20200;-69
2024/04/08 03:28:25;;;;;;;;;;;;;;;14.21;78.14;96029.38;5505451;26;20082;-69
2024/04/08 03:30:51;;;;;;;;;;;;;;;14.20;77.25;96030.41;5505605;26;20166;-69
2024/04/08 03:33:21;;;;;;;;;;;;;;;14.20;78.59;96034.91;5505579;26;20156;-71
2024/04/08 03:35:47;;;;;;;;;;;;;;;14.17;78.87;96036.19;5474495;26;19982;-69
2024/04/08 03:38:13;;;;;;;;;;;;;;;14.15;79.49;96021.66;5504815;26;19952;-68
2024/04/08 03:40:39;;;;;;;;;;;;;;;14.13;80.30;96034.28;5505559;26;19950;-68
2024/04/08 03:43:06;;;;;;;;;;;;;;;14.07;79.50;96027.38;5505539;26;19957;-68
2024/04/08 03:45:32;;;;;;;;;;;;;;;14.05;79.77;96034.75;5505483;26;20108;-68
2024/04/08 03:47:58;;;;;;;;;;;;;;;14.01;79.45;96023.91;5505391;26;19974;-69
2024/04/08 03:50:27;;;;;;;;;;;;;;;13.99;79.46;96026.81;5505465;26;19957;-68
2024/04/08 03:52:53;;;;;;;;;;;;;;;13.98;79.03;96027.03;5505390;26;19975;-83
2024/04/08 03:55:18;;;;;;;;;;;;;;;13.95;80.83;96025.69;5505424;26;19964;-75
2024/04/08 03:57:44;;;;;;;;;;;;;;;13.91;79.58;96031.72;5505411;26;19947;-74
2024/04/08 04:00:10;;;;;;;;;;;;;;;13.87;82.19;96034.06;5505303;26;19958;-75
2024/04/08 04:02:37;;;;;;;;;;;;;;;13.83;80.18;96030.31;5505287;26;19973;-74
2024/04/08 04:05:03;;;;;;;;;;;;;;;13.79;81.23;96037.91;5505273;26;19952;-75
2024/04/08 04:07:29;;;;;;;;;;;;;;;13.76;80.54;96045.56;5505155;26;20024;-75
2024/04/08 04:09:55;;;;;;;;;;;;;;;13.71;81.22;96054.19;5505143;26;19985;-69
2024/04/08 04:12:21;;;;;;;;;;;;;;;13.70;82.20;96059.72;5505191;26;19949;-84
2024/04/08 04:14:47;;;;;;;;;;;;;;;13.67;82.94;96058.38;5505158;26;19948;-69
2024/04/08 04:17:13;;;;;;;;;;;;;;;13.67;83.79;96060.19;5504251;26;20155;-70
2024/04/08 04:19:39;;;;;;;;;;;;;;;13.66;84.09;96058.63;5504142;26;19955;-70
2024/04/08 04:22:05;;;;;;;;;;;;;;;13.63;83.61;96051.19;5505005;26;19969;-70
2024/04/08 04:24:30;;;;;;;;;;;;;;;13.62;84.37;96060.16;5504513;26;19986;-69
2024/04/08 04:26:56;;;;;;;;;;;;;;;13.60;85.12;96053.25;5504767;26;19969;-69
2024/04/08 04:29:22;;;;;;;;;;;;;;;13.59;85.46;96054.31;5504775;26;19969;-84
2024/04/08 04:31:48;;;;;;;;;;;;;;;13.58;84.39;96039.53;5504833;26;19975;-69
2024/04/08 04:34:14;;;;;;;;;;;;;;;13.57;85.46;96043.25;5503952;26;19975;-70
2024/04/08 04:36:41;;;;;;;;;;;;;;;13.55;86.02;96040.06;5503886;26;19953;-70
2024/04/08 04:39:09;;;;;;;;;;;;;;;13.53;85.76;96038.72;5504801;26;19973;-70
2024/04/08 04:41:35;;;;;;;;;;;;;;;13.50;86.24;96032.09;5504721;26;19973;-70
2024/04/08 04:44:01;;;;;;;;;;;;;;;13.50;85.95;96044.44;5504685;26;19954;-70
2024/04/08 04:46:27;;;;;;;;;;;;;;;13.49;86.76;96033.13;5504566;26;20060;-74
2024/04/08 04:48:52;;;;;;;;;;;;;;;13.49;85.92;96048.16;5504533;26;19943;-75
2024/04/08 04:51:18;;;;;;;;;;;;;;;13.45;86.02;96055.72;5504615;26;19958;-71
2024/04/08 04:53:44;;;;;;;;;;;;;;;13.42;85.88;96042.25;5504559;26;19968;-70
2024/04/08 04:56:10;;;;;;;;;;;;;;;13.37;86.39;96046.41;5504481;26;19949;-70
2024/04/08 04:58:36;;;;;;;;;;;;;;;13.33;87.51;96062.94;5504445;26;20250;-69
2024/04/08 05:01:01;;;;;;;;;;;;;;;13.29;86.40;96067.13;5504460;26;20009;-69
2024/04/08 05:03:27;;;;;;;;;;;;;;;13.27;87.08;96067.34;5504374;26;19967;-69
2024/04/08 05:05:54;;;;;;;;;;;;;;;13.27;88.38;96072.63;5504363;26;19967;-75
2024/04/08 05:08:19;;;;;;;;;;;;;;;13.26;88.03;96080.75;5504208;26;19955;-85
2024/04/08 05:10:45;;;;;;;;;;;;;;;13.20;89.18;96079.88;5504311;26;20090;-85
2024/04/08 05:13:11;;;;;;;;;;;;;;;13.15;88.22;96085.88;5503493;26;19976;-85
2024/04/08 05:15:37;;;;;;;;;;;;;;;13.14;89.34;96080.84;5504274;26;19952;-84
2024/04/08 05:18:03;;;;;;;;;;;;;;;13.15;89.72;96082.47;5503406;26;19980;-85
2024/04/08 05:20:29;;;;;;;;;;;;;;;13.15;90.46;96077.97;5504045;26;19956;-84
2024/04/08 05:22:55;;;;;;;;;;;;;;;13.16;90.57;96086.66;5504150;26;19950;-73
2024/04/08 05:25:21;;;;;;;;;;;;;;;13.18;90.20;96077.47;5504054;26;19972;-70
2024/04/08 05:27:48;;;;;;;;;;;;;;;13.20;90.23;96078.03;5503781;26;19957;-71
2024/04/08 05:30:13;;;;;;;;;;;;;;;13.22;91.29;96072.53;5502949;26;20077;-71
2024/04/08 05:32:39;;;;;;;;;;;;;;;13.26;89.76;96072.84;5502932;26;20023;-72
2024/04/08 05:35:06;;;;;;;;;;;;;;;13.30;90.88;96058.19;5503903;26;20096;-71
2024/04/08 05:37:32;;;;;;;;;;;;;;;13.33;91.10;96065.59;5501873;26;20060;-71
2024/04/08 05:39:58;;;;;;;;;;;;;;;13.39;90.65;96062.78;5503062;26;19988;-70
2024/04/08 05:42:24;;;;;;;;;;;;;;;13.45;91.62;96062.84;5503870;26;19958;-69
2024/04/08 05:44:50;;;;;;;;;;;;;;;13.51;91.13;96057.38;5503901;26;19996;-73
2024/04/08 05:47:16;;;;;;;;;;;;;;;13.57;91.84;96058.25;5502840;26;19987;-73
2024/04/08 05:49:41;;;;;;;;;;;;;;;13.64;91.80;96061.47;5503718;26;19975;-73
2024/04/08 05:52:07;;;;;;;;;;;;;;;13.72;92.31;96053.16;5503682;26;19957;-73
2024/04/08 05:54:33;;;;;;;;;;;;;;;13.82;91.91;96047.19;5503635;26;20144;-73
2024/04/08 05:56:59;;;;;;;;;;;;;;;13.91;92.05;96048.34;5503554;26;19971;-73
2024/04/08 05:59:26;;;;;;;;;;;;;;;14.04;90.64;96051.63;5502768;26;19953;-73
2024/04/08 06:01:52;;;;;;;;;;;;;;;14.18;91.40;96058.09;5503547;26;19962;-73
2024/04/08 06:04:18;;;;;;;;;;;;;;;14.36;90.47;96068.28;5503523;26;19950;-69
2024/04/08 06:06:46;;;;;;;;;;;;;;;14.52;92.13;96061.28;5503477;26;20085;-69
2024/04/08 06:09:11;;;;;;;;;;;;;;;14.71;89.40;96053.00;5503251;26;20092;-69
2024/04/08 06:11:37;;;;;;;;;;;;;;;14.88;88.39;96056.28;5503365;26;19952;-70
2024/04/08 06:14:03;;;;;;;;;;;;;;;15.05;89.53;96060.59;5503294;26;19994;-70
2024/04/08 06:16:29;;;;;;;;;;;;;;;15.20;88.50;96045.66;5500935;26;19989;-69
2024/04/08 06:18:55;;;;;;;;;;;;;;;15.34;87.15;96039.88;5503247;26;19972;-68
2024/04/08 06:21:21;;;;;;;;;;;;;;;15.46;86.36;96032.53;5503188;26;19950;-69
2024/04/08 06:23:47;;;;;;;;;;;;;;;15.62;85.54;96043.94;5503096;26;19961;-69
2024/04/08 06:26:14;;;;;;;;;;;;;;;15.78;84.87;96035.03;5502848;26;19949;-69
2024/04/08 06:28:40;;;;;;;;;;;;;;;15.95;83.12;96037.44;5503105;26;19954;-70
2024/04/08 06:31:06;;;;;;;;;;;;;;;16.11;78.06;96013.69;5503073;26;19953;-69
2024/04/08 06:33:32;;;;;;;;;;;;;;;16.30;79.08;96016.59;5502940;26;19952;-68
2024/04/08 06:35:58;;;;;;;;;;;;;;;16.48;80.35;96028.50;5502950;26;19964;-69
2024/04/08 06:38:24;;;;;;;;;;;;;;;16.69;76.80;96008.09;5502869;26;20156;-74
2024/04/08 06:40:50;;;;;;;;;;;;;;;16.87;76.98;96010.22;5502080;26;19968;-69
2024/04/08 06:43:16;;;;;;;;;;;;;;;17.04;74.25;96009.91;5502757;26;20101;-70
2024/04/08 06:45:41;;;;;;;;;;;;;;;17.20;71.99;96006.16;5502752;26;19953;-70
2024/04/08 06:48:07;;;;;;;;;;;;;;;17.35;70.62;95996.56;5504359;26;19954;-70
2024/04/08 06:50:33;;;;;;;;;;;;;;;17.51;69.09;95994.59;5506229;26;19953;-70
2024/04/08 06:52:59;;;;;;;;;;;;;;;17.68;69.73;95983.66;5506242;26;19966;-70
2024/04/08 06:55:25;;;;;;;;;;;;;;;17.83;70.33;95983.59;5506189;26;20012;-73
2024/04/08 06:57:51;;;;;;;;;;;;;;;17.96;67.22;95969.72;5506075;26;19958;-69
2024/04/08 07:00:18;;;;;;;;;;;;;;;18.07;66.01;95962.47;5506161;26;19952;-69
2024/04/08 07:02:44;;;;;;;;;;;;;;;18.21;66.90;95981.22;5506122;26;19952;-69
2024/04/08 07:05:09;;;;;;;;;;;;;;;18.34;66.57;95977.91;5506105;26;20224;-69
2024/04/08 07:07:35;;;;;;;;;;;;;;;18.48;65.48;95969.28;5506001;26;19947;-69
2024/04/08 07:10:01;;;;;;;;;;;;;;;18.60;61.26;95959.88;5505852;26;20144;-69
2024/04/08 07:12:27;;;;;;;;;;;;;;;18.71;62.43;95971.19;5505945;26;19958;-69
2024/04/08 07:14:53;;;;;;;;;;;;;;;18.86;59.38;95972.94;5505942;26;19967;-68
2024/04/08 07:17:19;;;;;;;;;;;;;;;18.95;59.48;95970.44;5505877;26;19956;-75
2024/04/08 07:19:45;;;;;;;;;;;;;;;19.01;59.08;95964.00;5505847;26;19980;-75
2024/04/08 07:22:11;;;;;;;;;;;;;;;19.15;60.83;95966.75;5505846;26;20027;-76
2024/04/08 07:24:37;;;;;;;;;;;;;;;19.25;57.85;95959.44;5505809;26;19956;-75
2024/04/08 07:27:05;;;;;;;;;;;;;;;19.34;57.22;95962.28;5504964;26;19963;-75
2024/04/08 07:29:31;;;;;;;;;;;;;;;19.42;56.79;95971.47;5505600;26;19974;-75
2024/04/08 07:31:58;;;;;;;;;;;;;;;19.57;58.65;95975.78;5505772;26;19959;-83
2024/04/08 07:34:23;;;;;;;;;;;;;;;19.75;57.48;95971.59;5505703;26;19979;-74
2024/04/08 07:36:49;;;;;;;;;;;;;;;19.91;55.97;95967.63;5505627;26;20080;-70
2024/04/08 07:39:15;;;;;;;;;;;;;;;20.06;55.69;95969.28;5505616;26;19956;-70
2024/04/08 07:41:42;;;;;;;;;;;;;;;20.17;52.68;95961.91;5505604;26;19968;-71
2024/04/08 07:44:08;;;;;;;;;;;;;;;20.30;50.38;95958.50;5505537;26;19953;-70
2024/04/08 07:46:34;;;;;;;;;;;;;;;20.32;48.78;95959.00;5505507;26;19976;-69
2024/04/08 07:48:59;;;;;;;;;;;;;;;20.41;52.45;95967.09;5505442;26;20164;-70
2024/04/08 07:51:25;;;;;;;;;;;;;;;20.56;53.27;95980.19;5504893;26;20178;-74
2024/04/08 07:53:51;;;;;;;;;;;;;;;20.67;44.99;95964.81;5505439;26;20048;-71
2024/04/08 07:56:17;;;;;;;;;;;;;;;20.72;51.17;95983.38;5474083;26;19972;-72
2024/04/08 07:58:45;;;;;;;;;;;;;;;20.83;49.08;95973.31;5504055;26;19961;-72
2024/04/08 08:01:11;;;;;;;;;;;;;;;20.89;47.74;95977.47;5504091;26;19952;-71
2024/04/08 08:03:38;;;;;;;;;;;;;;;20.83;46.34;95984.78;5504338;26;19962;-71
2024/04/08 08:06:04;;;;;;;;;;;;;;;20.66;49.43;95979.22;5505224;26;19973;-72
2024/04/08 08:08:30;;;;;;;;;;;;;;;20.62;49.44;95983.56;5504978;26;19999;-70
2024/04/08 08:11:05;;;;;;;;;;;;;;;20.63;46.58;95977.94;5505176;26;19957;-84
2024/04/08 08:13:32;;;;;;;;;;;;;;;20.76;46.52;95986.25;5504265;26;19967;-85
2024/04/08 08:15:58;;;;;;;;;;;;;;;20.85;47.46;95971.97;5505105;26;19954;-85
2024/04/08 08:18:24;;;;;;;;;;;;;;;21.02;47.58;95974.03;5504263;26;19957;-85
2024/04/08 08:20:51;;;;;;;;;;;;;;;21.23;48.22;95987.75;5505036;26;19953;-85
2024/04/08 08:23:16;;;;;;;;;;;;;;;21.35;46.03;95981.91;5504989;26;19975;-85
2024/04/08 08:25:42;;;;;;;;;;;;;;;21.47;44.04;95970.78;5504955;26;19956;-86
2024/04/08 08:28:08;;;;;;;;;;;;;;;21.53;41.70;95982.13;5504569;26;19977;-84
2024/04/08 08:30:35;;;;;;;;;;;;;;;21.52;46.24;95989.31;5504866;26;19961;-69
2024/04/08 08:33:01;;;;;;;;;;;;;;;21.48;43.61;95983.81;5504718;26;19959;-68
2024/04/08 08:35:26;;;;;;;;;;;;;;;21.55;45.11;95986.06;5504745;26;19972;-69
2024/04/08 08:37:52;;;;;;;;;;;;;;;21.62;43.45;95983.78;5504690;26;19992;-68
2024/04/08 08:40:20;;;;;;;;;;;;;;;21.65;42.65;95977.06;5504703;26;19972;-69
2024/04/08 08:42:50;;;;;;;;;;;;;;;21.80;46.39;95975.94;5504676;26;20094;-68
2024/04/08 08:45:16;;;;;;;;;;;;;;;21.96;46.93;95969.13;5504573;26;20100;-72
2024/04/08 08:47:42;;;;;;;;;;;;;;;21.91;42.22;95958.59;5504590;26;19957;-69
2024/04/08 08:50:09;;;;;;;;;;;;;;;21.89;45.21;95955.44;5503588;26;19975;-69
2024/04/08 08:52:35;;;;;;;;;;;;;;;22.00;48.52;95956.75;5504530;26;20160;-70
2024/04/08 08:55:02;;;;;;;;;;;;;;;22.21;48.05;95966.97;5504501;26;19958;-69
2024/04/08 08:57:29;;;;;;;;;;;;;;;22.38;46.83;95951.06;5504469;26;19955;-70
2024/04/08 08:59:57;;;;;;;;;;;;;;;22.51;44.51;95952.13;5504423;26;19959;-70
2024/04/08 09:02:24;;;;;;;;;;;;;;;22.59;43.93;95967.38;5504344;26;20083;-71
2024/04/08 09:04:50;;;;;;;;;;;;;;;22.61;43.62;95951.81;5504347;26;19974;-84
2024/04/08 09:07:16;;;;;;;;;;;;;;;22.60;42.70;95944.91;5504212;26;19971;-85
2024/04/08 09:09:53;;;;;;;;;;;;;;;22.60;41.83;95947.59;5504176;26;19957;-84
2024/04/08 09:12:19;;;;;;;;;;;;;;;22.70;42.84;95951.88;5502659;26;20081;-85
2024/04/08 09:14:46;;;;;;;;;;;;;;;22.94;42.41;95956.06;5504253;26;19951;-85
2024/04/08 09:17:12;;;;;;;;;;;;;;;23.01;40.88;95953.75;5504174;26;20096;-84
2024/04/08 09:19:38;;;;;;;;;;;;;;;22.95;42.15;95947.75;5504116;26;19959;-84
2024/04/08 09:22:04;;;;;;;;;;;;;;;23.00;42.26;95952.16;5504068;26;19983;-78
2024/04/08 09:24:30;;;;;;;;;;;;;;;23.19;39.03;95942.00;5472688;26;19980;-70
2024/04/08 09:26:57;;;;;;;;;;;;;;;23.36;41.96;95949.28;5503930;26;19953;-69
2024/04/08 09:29:23;;;;;;;;;;;;;;;23.46;39.58;95942.84;5504029;26;19971;-71
2024/04/08 09:31:49;;;;;;;;;;;;;;;23.67;40.08;95943.81;5503973;26;20161;-70
2024/04/08 09:34:14;;;;;;;;;;;;;;;23.88;34.93;95929.84;5503890;26;19959;-70
2024/04/08 09:36:40;;;;;;;;;;;;;;;24.10;39.18;95929.63;5503894;26;20167;-70
2024/04/08 09:39:09;;;;;;;;;;;;;;;24.09;37.08;95930.75;5503820;26;19965;-70
2024/04/08 09:41:38;;;;;;;;;;;;;;;24.15;36.86;95943.97;5503713;26;20164;-72
2024/04/08 09:44:07;;;;;;;;;;;;;;;24.10;37.29;95936.91;5502870;26;19964;-73
2024/04/08 09:46:34;;;;;;;;;;;;;;;24.08;37.12;95942.56;5502830;26;20165;-71
2024/04/08 09:49:00;;;;;;;;;;;;;;;24.19;37.17;95939.56;5472370;26;19982;-72
2024/04/08 09:51:28;;;;;;;;;;;;;;;24.42;37.37;95935.59;5502660;26;19962;-72
2024/04/08 09:53:53;;;;;;;;;;;;;;;24.63;33.05;95929.53;5472485;26;20060;-72
2024/04/08 09:56:21;;;;;;;;;;;;;;;24.77;34.72;95929.34;5502516;26;19975;-72
2024/04/08 09:59:02;;;;;;;;;;;;;;;24.95;35.97;95922.00;5502576;26;20088;-73
2024/04/08 10:01:28;;;;;;;;;;;;;;;24.96;32.40;95927.03;5503482;26;19971;-70
2024/04/08 10:03:58;;;;;;;;;;;;;;;24.89;34.37;95924.09;5503348;26;19959;-70
2024/04/08 10:06:25;;;;;;;;;;;;;;;24.87;34.40;95929.78;5502696;26;20191;-71
2024/04/08 10:08:51;;;;;;;;;;;;;;;25.03;35.31;95934.59;5503181;26;20154;-70
2024/04/08 10:11:17;;;;;;;;;;;;;;;25.22;35.38;95924.28;5503266;26;19960;-71
2024/04/08 10:13:49;;;;;;;;;;;;;;;25.24;34.66;95916.69;5503213;26;19956;-70
2024/04/08 10:16:16;;;;;;;;;;;;;;;25.27;35.60;95929.44;5503040;26;19977;-71
2024/04/08 10:19:00;;;;;;;;;;;;;;;25.46;34.41;95938.94;5503106;26;19975;-70
2024/04/08 10:21:26;;;;;;;;;;;;;;;25.48;34.68;95929.47;5503135;26;19983;-71
2024/04/08 10:23:53;;;;;;;;;;;;;;;25.48;32.24;95912.56;5502438;26;20083;-69
2024/04/08 10:26:22;;;;;;;;;;;;;;;25.47;32.96;95911.78;5502676;26;19991;-70
2024/04/08 10:28:48;;;;;;;;;;;;;;;25.50;31.94;95900.38;5502887;26;19977;-70
2024/04/08 10:31:14;;;;;;;;;;;;;;;25.64;30.93;95896.63;5502873;26;19983;-71
2024/04/08 10:33:40;;;;;;;;;;;;;;;25.59;31.82;95896.84;5502833;26;20085;-70
2024/04/08 10:36:06;;;;;;;;;;;;;;;25.57;30.57;95897.16;5502987;26;19955;-70
2024/04/08 10:38:32;;;;;;;;;;;;;;;25.54;31.45;95894.38;5502806;26;19974;-83
2024/04/08 10:41:05;;;;;;;;;;;;;;;25.65;32.09;95887.47;5502817;26;19987;-74
2024/04/08 10:43:32;;;;;;;;;;;;;;;25.84;28.17;95881.63;5502688;26;20097;-74
2024/04/08 10:45:58;;;;;;;;;;;;;;;25.89;31.32;95884.13;5502643;26;19958;-74
2024/04/08 10:48:24;;;;;;;;;;;;;;;25.97;30.69;95877.13;5502519;26;20133;-74
2024/04/08 10:50:50;;;;;;;;;;;;;;;26.01;32.06;95872.66;5502593;26;19949;-74
2024/04/08 10:53:16;;;;;;;;;;;;;;;26.16;29.80;95884.66;5502442;26;20019;-75
2024/04/08 10:55:42;;;;;;;;;;;;;;;26.36;30.41;95891.13;5502428;26;19958;-74
2024/04/08 10:58:08;;;;;;;;;;;;;;;26.61;32.00;95890.06;5501678;26;19949;-70
2024/04/08 11:00:34;;;;;;;;;;;;;;;26.81;30.44;95891.06;5502341;26;20048;-71
2024/04/08 11:02:59;;;;;;;;;;;;;;;26.89;28.88;95884.00;5502329;26;19962;-70
2024/04/08 11:05:26;;;;;;;;;;;;;;;26.89;28.89;95884.78;5502292;26;19961;-69
2024/04/08 11:07:52;;;;;;;;;;;;;;;26.97;29.99;95885.03;5502285;26;19981;-70
2024/04/08 11:10:18;;;;;;;;;;;;;;;27.00;29.05;95876.25;5502021;26;19957;-70
2024/04/08 11:12:44;;;;;;;;;;;;;;;27.12;29.00;95877.03;5502203;26;20197;-83
2024/04/08 11:15:12;;;;;;;;;;;;;;;27.32;29.40;95877.28;5501306;26;19962;-70
2024/04/08 11:17:38;;;;;;;;;;;;;;;27.52;30.19;95878.22;5501085;26;19955;-73
2024/04/08 11:20:05;;;;;;;;;;;;;;;27.70;27.93;95882.19;5470850;26;20066;-72
2024/04/08 11:22:32;;;;;;;;;;;;;;;27.73;26.79;95884.19;5501854;26;19969;-73
2024/04/08 11:24:59;;;;;;;;;;;;;;;27.78;27.33;95883.16;5501084;26;19964;-73
2024/04/08 11:27:28;;;;;;;;;;;;;;;27.73;27.89;95878.81;5501595;26;19982;-73
2024/04/08 11:29:54;;;;;;;;;;;;;;;27.83;27.33;95899.09;5501769;26;20099;-72
2024/04/08 11:32:20;;;;;;;;;;;;;;;27.85;27.93;95902.25;5500884;26;19964;-70
2024/04/08 11:34:46;;;;;;;;;;;;;;;27.88;25.88;95903.50;5503041;26;19961;-69
2024/04/08 11:37:12;;;;;;;;;;;;;;;27.89;25.82;95897.75;5505536;26;20162;-69
2024/04/08 11:39:40;;;;;;;;;;;;;;;28.01;27.00;95912.31;5505424;26;20178;-69
2024/04/08 11:42:06;;;;;;;;;;;;;;;28.08;26.66;95904.44;5505474;26;19971;-69
2024/04/08 11:44:33;;;;;;;;;;;;;;;27.94;28.30;95894.81;5505415;26;19957;-69
2024/04/08 11:46:59;;;;;;;;;;;;;;;27.78;26.49;95893.94;5505409;26;19961;-69
2024/04/08 11:49:25;;;;;;;;;;;;;;;27.60;26.60;95881.91;5505268;26;19954;-75
2024/04/08 11:51:51;;;;;;;;;;;;;;;27.62;28.55;95883.13;5504605;26;20186;-70
2024/04/08 11:54:18;;;;;;;;;;;;;;;27.74;27.74;95887.69;5505200;26;19985;-70
2024/04/08 11:56:44;;;;;;;;;;;;;;;27.84;28.12;95878.31;5504499;26;20092;-70
2024/04/08 11:59:10;;;;;;;;;;;;;;;27.87;27.18;95856.91;5504403;26;20029;-70
2024/04/08 12:01:36;;;;;;;;;;;;;;;27.92;27.57;95869.34;5505170;26;19955;-70
2024/04/08 12:04:06;;;;;;;;;;;;;;;27.60;26.00;95858.44;5504398;26;19965;-69
2024/04/08 12:06:32;;;;;;;;;;;;;;;27.42;27.90;95868.69;5505104;26;19956;-70
2024/04/08 12:08:57;;;;;;;;;;;;;;;27.29;27.22;95856.41;5505015;26;19975;-73
2024/04/08 12:11:24;;;;;;;;;;;;;;;27.24;29.39;95864.72;5504964;26;20017;-69
2024/04/08 12:13:53;;;;;;;;;;;;;;;27.17;28.13;95878.69;5505021;26;19953;-69
2024/04/08 12:16:18;;;;;;;;;;;;;;;27.19;27.32;95876.44;5504911;26;19982;-69
2024/04/08 12:18:44;;;;;;;;;;;;;;;27.24;30.31;95880.88;5504966;26;19959;-68
2024/04/08 12:21:10;;;;;;;;;;;;;;;27.18;29.28;95872.22;5504877;26;19957;-69
2024/04/08 12:23:36;;;;;;;;;;;;;;;27.10;28.82;95863.13;5504577;26;20067;-69
2024/04/08 12:26:02;;;;;;;;;;;;;;;27.19;28.72;95860.31;5503633;26;19959;-68
2024/04/08 12:28:28;;;;;;;;;;;;;;;27.17;28.25;95865.25;5504586;26;19959;-76
2024/04/08 12:30:54;;;;;;;;;;;;;;;27.32;28.58;95858.44;5504684;26;20180;-72
2024/04/08 12:33:20;;;;;;;;;;;;;;;27.43;29.00;95847.97;5503805;26;19961;-73
2024/04/08 12:35:47;;;;;;;;;;;;;;;27.52;29.57;95856.66;5504698;26;19991;-72
2024/04/08 12:38:13;;;;;;;;;;;;;;;27.61;28.58;95853.84;5504680;26;19956;-72
2024/04/08 12:40:40;;;;;;;;;;;;;;;27.59;28.47;95842.63;5503766;26;19981;-73
2024/04/08 12:43:06;;;;;;;;;;;;;;;27.66;29.11;95840.91;5473415;26;19972;-72